Time;durP1;ratioP1;P1;durP2;ratioP2;P2;SDS_P1;SDS_P2;PMS_P1;PMS_P2;Temp;Humidity;BMP_temperature;BMP_pressure;BME280_temperature;BME280_humidity;BME280_pressure;Samples;Min_cycle;Max_cycle;Signal;HPM_P1;HPM_P2
2023/06/29 00:00:15;;;;;;;;;;;19.50;99.90;;;;;;5030729;28;19979;-44
2023/06/29 00:02:43;;;;;;;;;;;19.60;99.90;;;;;;5027988;28;20016;-45
2023/06/29 00:05:10;;;;;;;;;;;19.50;99.90;;;;;;5012092;28;21271;-44
2023/06/29 00:07:37;;;;;;;;;;;19.50;99.90;;;;;;5026645;28;19925;-45
2023/06/29 00:10:03;;;;;;;;;;;19.50;99.90;;;;;;5028407;28;19963;-44
2023/06/29 00:12:30;;;;;;;;;;;19.50;99.90;;;;;;5030272;28;19933;-43
2023/06/29 00:14:57;;;;;;;;;;;19.50;99.90;;;;;;5012782;28;19968;-43
2023/06/29 00:17:23;;;;;;;;;;;19.50;99.90;;;;;;5012421;28;19932;-44
2023/06/29 00:19:51;;;;;;;;;;;19.50;99.90;;;;;;5013969;28;19929;-45
2023/06/29 00:22:18;;;;;;;;;;;19.50;99.90;;;;;;5029986;28;20018;-44
2023/06/29 00:24:52;;;;;;;;;;;19.50;99.90;;;;;;5013014;28;19936;-45
2023/06/29 00:27:18;;;;;;;;;;;19.50;99.90;;;;;;5026963;28;20307;-44
2023/06/29 00:29:45;;;;;;;;;;;19.40;99.90;;;;;;5031177;28;19963;-43
2023/06/29 00:32:12;;;;;;;;;;;19.50;99.90;;;;;;5030092;28;20358;-45
2023/06/29 00:34:39;;;;;;;;;;;19.50;99.90;;;;;;5029644;28;19932;-44
2023/06/29 00:37:07;;;;;;;;;;;19.50;99.90;;;;;;5031975;28;19967;-44
2023/06/29 00:39:34;;;;;;;;;;;19.50;99.90;;;;;;5012750;28;19937;-44
2023/06/29 00:42:00;;;;;;;;;;;19.50;99.90;;;;;;5030991;28;19940;-43
2023/06/29 00:44:27;;;;;;;;;;;19.50;99.90;;;;;;5029452;28;19972;-45
2023/06/29 00:46:54;;;;;;;;;;;19.40;99.90;;;;;;5030369;28;20446;-44
2023/06/29 00:49:21;;;;;;;;;;;19.40;99.90;;;;;;5045514;28;19933;-45
2023/06/29 00:51:48;;;;;;;;;;;19.40;99.90;;;;;;5028604;28;19929;-43
2023/06/29 00:54:16;;;;;;;;;;;19.40;99.90;;;;;;5012743;28;19979;-44
2023/06/29 00:56:42;;;;;;;;;;;19.40;99.90;;;;;;5034531;28;19929;-45
2023/06/29 00:59:09;;;;;;;;;;;19.40;99.90;;;;;;5016624;28;19931;-44
2023/06/29 01:01:36;;;;;;;;;;;19.40;99.90;;;;;;5031762;28;19926;-44
2023/06/29 01:04:03;;;;;;;;;;;19.40;99.90;;;;;;5016979;28;19971;-45
2023/06/29 01:06:31;;;;;;;;;;;19.40;99.90;;;;;;5034819;28;20382;-45
2023/06/29 01:08:59;;;;;;;;;;;19.40;99.90;;;;;;5034861;28;19983;-43
2023/06/29 01:11:27;;;;;;;;;;;19.30;99.90;;;;;;5033596;28;20377;-45
2023/06/29 01:13:53;;;;;;;;;;;19.40;99.90;;;;;;5015478;28;19925;-44
2023/06/29 01:16:20;;;;;;;;;;;19.40;99.90;;;;;;5033059;28;20004;-44
2023/06/29 01:18:47;;;;;;;;;;;19.40;99.90;;;;;;5032345;28;19972;-44
2023/06/29 01:21:13;;;;;;;;;;;19.30;99.90;;;;;;5034080;28;19933;-45
2023/06/29 01:23:40;;;;;;;;;;;19.30;99.90;;;;;;5033403;28;19948;-45
2023/06/29 01:26:09;;;;;;;;;;;19.30;99.90;;;;;;5016468;28;19961;-44
2023/06/29 01:28:38;;;;;;;;;;;19.30;99.90;;;;;;5033883;28;19925;-45
2023/06/29 01:31:05;;;;;;;;;;;19.30;99.90;;;;;;5015782;28;19925;-44
2023/06/29 01:33:32;;;;;;;;;;;19.30;99.90;;;;;;5016185;28;19925;-43
2023/06/29 01:36:00;;;;;;;;;;;19.30;99.90;;;;;;5015799;28;19937;-45
2023/06/29 01:38:27;;;;;;;;;;;19.30;99.90;;;;;;5016778;28;19929;-45
2023/06/29 01:40:54;;;;;;;;;;;19.30;99.90;;;;;;5034610;28;19949;-44
2023/06/29 01:43:22;;;;;;;;;;;19.30;99.90;;;;;;5016639;28;20007;-44
2023/06/29 01:45:49;;;;;;;;;;;19.30;99.90;;;;;;5032820;28;19940;-45
2023/06/29 01:48:15;;;;;;;;;;;19.30;99.90;;;;;;5014968;28;19935;-45
2023/06/29 01:50:42;;;;;;;;;;;19.30;99.90;;;;;;5048668;28;19926;-45
2023/06/29 01:53:09;;;;;;;;;;;19.30;99.90;;;;;;5029054;28;19925;-44
2023/06/29 01:55:35;;;;;;;;;;;19.30;99.90;;;;;;5015783;28;19925;-45
2023/06/29 01:58:02;;;;;;;;;;;19.30;99.90;;;;;;5033177;28;19925;-45
2023/06/29 02:00:30;;;;;;;;;;;19.30;99.90;;;;;;5033010;28;19925;-44
2023/06/29 02:02:57;;;;;;;;;;;19.20;99.90;;;;;;5031744;28;19937;-44
2023/06/29 02:05:23;;;;;;;;;;;19.20;99.90;;;;;;5033893;28;19932;-45
2023/06/29 02:07:50;;;;;;;;;;;19.20;99.90;;;;;;5033243;28;20305;-44
2023/06/29 02:10:17;;;;;;;;;;;19.20;99.90;;;;;;5010766;28;19932;-44
2023/06/29 02:12:43;;;;;;;;;;;19.20;99.90;;;;;;5032636;28;19972;-44
2023/06/29 02:15:10;;;;;;;;;;;19.20;99.90;;;;;;5015120;28;20015;-44
2023/06/29 02:17:38;;;;;;;;;;;19.20;99.90;;;;;;5029999;28;19968;-45
2023/06/29 02:20:07;;;;;;;;;;;19.20;99.90;;;;;;5031122;28;19937;-45
2023/06/29 02:22:34;;;;;;;;;;;19.20;99.90;;;;;;5015919;28;19929;-45
2023/06/29 02:25:00;;;;;;;;;;;19.20;99.90;;;;;;5031836;28;20358;-46
2023/06/29 02:27:27;;;;;;;;;;;19.20;99.90;;;;;;5032536;28;19925;-43
2023/06/29 02:29:54;;;;;;;;;;;19.20;99.90;;;;;;5012749;28;20473;-46
2023/06/29 02:32:20;;;;;;;;;;;19.20;99.90;;;;;;5033611;28;19936;-44
2023/06/29 02:34:49;;;;;;;;;;;19.20;99.90;;;;;;5048813;28;19975;-43
2023/06/29 02:37:15;;;;;;;;;;;19.20;99.90;;;;;;5033276;28;19966;-45
2023/06/29 02:39:42;;;;;;;;;;;19.20;99.90;;;;;;5012113;28;20036;-45
2023/06/29 02:42:09;;;;;;;;;;;19.20;99.90;;;;;;5015700;28;19925;-45
2023/06/29 02:44:35;;;;;;;;;;;19.20;99.90;;;;;;5032724;28;19932;-45
2023/06/29 02:47:02;;;;;;;;;;;19.20;99.90;;;;;;5033061;28;19986;-45
2023/06/29 02:49:29;;;;;;;;;;;19.10;99.90;;;;;;5048096;28;19987;-44
2023/06/29 02:51:57;;;;;;;;;;;19.10;99.90;;;;;;5032612;28;19933;-44
2023/06/29 02:54:23;;;;;;;;;;;19.10;99.90;;;;;;5015885;28;19925;-45
2023/06/29 02:56:50;;;;;;;;;;;19.20;99.90;;;;;;5033138;28;19964;-44
2023/06/29 02:59:17;;;;;;;;;;;19.10;99.90;;;;;;5032855;28;19956;-44
2023/06/29 03:01:43;;;;;;;;;;;19.10;99.90;;;;;;5046617;28;19932;-44
2023/06/29 03:04:10;;;;;;;;;;;19.10;99.90;;;;;;5032417;28;19971;-43
2023/06/29 03:06:37;;;;;;;;;;;19.10;99.90;;;;;;5032307;28;20392;-44
2023/06/29 03:09:05;;;;;;;;;;;19.10;99.90;;;;;;5048274;28;19929;-45
2023/06/29 03:11:32;;;;;;;;;;;19.10;99.90;;;;;;5031600;28;19926;-44
2023/06/29 03:13:59;;;;;;;;;;;19.10;99.90;;;;;;5015125;28;19990;-45
2023/06/29 03:16:26;;;;;;;;;;;19.10;99.90;;;;;;5032742;28;19932;-45
2023/06/29 03:18:53;;;;;;;;;;;19.10;99.90;;;;;;5014048;28;20176;-44
2023/06/29 03:21:20;;;;;;;;;;;19.10;99.90;;;;;;5031491;28;19929;-45
2023/06/29 03:23:47;;;;;;;;;;;19.10;99.90;;;;;;5032341;28;19964;-45
2023/06/29 03:26:15;;;;;;;;;;;19.10;99.90;;;;;;5015182;28;19925;-46
2023/06/29 03:28:42;;;;;;;;;;;19.10;99.90;;;;;;5031552;28;19936;-45
2023/06/29 03:31:08;;;;;;;;;;;19.10;99.90;;;;;;5009738;28;19925;-46
2023/06/29 03:33:35;;;;;;;;;;;19.10;99.90;;;;;;5045743;28;19933;-44
2023/06/29 03:36:02;;;;;;;;;;;19.10;99.90;;;;;;5040381;28;19971;-45
2023/06/29 03:38:29;;;;;;;;;;;19.10;99.90;;;;;;5021090;28;20003;-44
2023/06/29 03:40:55;;;;;;;;;;;19.10;99.90;;;;;;5031274;28;19925;-44
2023/06/29 03:43:23;;;;;;;;;;;19.10;99.90;;;;;;5046278;28;19982;-44
2023/06/29 03:45:50;;;;;;;;;;;19.10;99.90;;;;;;5030490;28;19998;-43
2023/06/29 03:48:17;;;;;;;;;;;19.10;99.90;;;;;;5026886;28;19960;-44
2023/06/29 03:50:43;;;;;;;;;;;19.20;99.90;;;;;;5011239;28;20360;-43
2023/06/29 03:53:10;;;;;;;;;;;19.10;99.90;;;;;;5015408;28;19926;-44
2023/06/29 03:55:37;;;;;;;;;;;19.10;99.90;;;;;;5029270;28;20385;-45
2023/06/29 03:58:03;;;;;;;;;;;19.20;99.90;;;;;;5029520;28;19925;-45
2023/06/29 04:00:31;;;;;;;;;;;19.20;99.90;;;;;;5041928;28;21024;-45
2023/06/29 04:02:58;;;;;;;;;;;19.20;99.90;;;;;;5002429;28;19980;-43
2023/06/29 04:05:27;;;;;;;;;;;19.20;99.90;;;;;;5028949;28;20030;-44
2023/06/29 04:07:53;;;;;;;;;;;19.20;99.90;;;;;;5030796;28;19925;-45
2023/06/29 04:10:20;;;;;;;;;;;19.20;99.90;;;;;;5029763;28;19979;-44
2023/06/29 04:12:47;;;;;;;;;;;19.30;99.90;;;;;;5009108;28;19929;-45
2023/06/29 04:15:13;;;;;;;;;;;19.30;99.90;;;;;;5025825;28;19979;-45
2023/06/29 04:17:41;;;;;;;;;;;19.30;99.90;;;;;;5012750;28;19932;-44
2023/06/29 04:20:09;;;;;;;;;;;19.30;99.90;;;;;;5029500;28;19989;-43
2023/06/29 04:22:36;;;;;;;;;;;19.30;99.90;;;;;;5029694;28;19926;-45
2023/06/29 04:25:02;;;;;;;;;;;19.30;99.90;;;;;;5025042;28;20003;-44
2023/06/29 04:27:31;;;;;;;;;;;19.40;99.90;;;;;;5027105;28;19959;-44
2023/06/29 04:29:58;;;;;;;;;;;19.40;99.90;;;;;;5014444;28;20336;-43
2023/06/29 04:32:25;;;;;;;;;;;19.40;99.90;;;;;;5050667;28;19944;-45
2023/06/29 04:34:53;;;;;;;;;;;19.40;99.90;;;;;;5049458;28;19932;-44
2023/06/29 04:37:20;;;;;;;;;;;19.40;99.90;;;;;;5033856;28;19968;-43
2023/06/29 04:39:46;;;;;;;;;;;19.50;99.90;;;;;;5046147;28;20477;-42
2023/06/29 04:42:13;;;;;;;;;;;19.50;99.90;;;;;;5011438;28;19925;-44
2023/06/29 04:44:40;;;;;;;;;;;19.50;99.90;;;;;;5016507;28;20392;-44
2023/06/29 04:47:06;;;;;;;;;;;19.50;99.90;;;;;;5014837;28;19958;-45
2023/06/29 04:49:36;;;;;;;;;;;19.60;99.90;;;;;;5032740;28;20316;-43
2023/06/29 04:52:05;;;;;;;;;;;19.60;99.90;;;;;;5034033;28;19933;-45
2023/06/29 04:54:31;;;;;;;;;;;19.60;99.90;;;;;;5016153;28;20422;-44
2023/06/29 04:56:59;;;;;;;;;;;19.60;99.90;;;;;;5031417;28;20383;-44
2023/06/29 04:59:26;;;;;;;;;;;19.70;99.90;;;;;;5035306;28;19981;-46
2023/06/29 05:01:53;;;;;;;;;;;19.70;99.90;;;;;;5016493;28;19926;-45
2023/06/29 05:04:19;;;;;;;;;;;19.70;99.90;;;;;;5018367;28;20364;-43
2023/06/29 05:06:46;;;;;;;;;;;19.70;99.90;;;;;;5047957;28;20014;-44
2023/06/29 05:09:15;;;;;;;;;;;19.70;99.90;;;;;;5016575;28;20015;-44
2023/06/29 05:11:42;;;;;;;;;;;19.80;99.90;;;;;;5035049;28;20389;-44
2023/06/29 05:14:09;;;;;;;;;;;19.90;99.90;;;;;;5043303;28;19959;-44
2023/06/29 05:16:36;;;;;;;;;;;20.00;99.90;;;;;;5032562;28;19929;-44
2023/06/29 05:19:03;;;;;;;;;;;20.00;99.90;;;;;;5032239;28;20381;-45
2023/06/29 05:21:30;;;;;;;;;;;20.00;99.90;;;;;;5032602;28;19929;-45
2023/06/29 05:23:57;;;;;;;;;;;20.10;99.90;;;;;;5028128;28;20443;-44
2023/06/29 05:26:25;;;;;;;;;;;20.10;99.90;;;;;;5031107;28;19970;-45
2023/06/29 05:28:51;;;;;;;;;;;20.20;99.90;;;;;;5019216;28;19929;-44
2023/06/29 05:31:18;;;;;;;;;;;20.20;99.90;;;;;;5031454;28;19925;-44
2023/06/29 05:33:45;;;;;;;;;;;20.20;99.90;;;;;;5033524;28;19959;-44
2023/06/29 05:36:11;;;;;;;;;;;20.30;99.90;;;;;;5034523;28;19952;-44
2023/06/29 05:38:38;;;;;;;;;;;20.40;99.90;;;;;;5049588;28;19945;-43
2023/06/29 05:41:05;;;;;;;;;;;20.40;99.90;;;;;;5015640;28;19963;-45
2023/06/29 05:43:33;;;;;;;;;;;20.40;99.90;;;;;;5033416;28;19983;-44
2023/06/29 05:45:59;;;;;;;;;;;20.50;99.90;;;;;;5048902;28;20399;-44
2023/06/29 05:48:26;;;;;;;;;;;20.50;99.90;;;;;;5016341;28;19990;-44
2023/06/29 05:50:53;;;;;;;;;;;20.60;99.90;;;;;;5034317;28;19929;-44
2023/06/29 05:53:19;;;;;;;;;;;20.50;99.90;;;;;;5032071;28;19925;-43
2023/06/29 05:55:47;;;;;;;;;;;20.60;99.90;;;;;;5033639;28;19940;-44
2023/06/29 05:58:13;;;;;;;;;;;20.60;99.90;;;;;;5016187;28;19964;-45
2023/06/29 06:00:41;;;;;;;;;;;20.70;99.90;;;;;;5016020;28;19952;-45
2023/06/29 06:03:08;;;;;;;;;;;20.70;99.90;;;;;;5016627;28;19933;-44
2023/06/29 06:05:35;;;;;;;;;;;20.80;99.90;;;;;;5017060;28;19987;-45
2023/06/29 06:08:01;;;;;;;;;;;20.80;99.90;;;;;;5016024;28;19968;-45
2023/06/29 06:10:28;;;;;;;;;;;20.80;99.90;;;;;;5034508;28;20297;-44
2023/06/29 06:12:55;;;;;;;;;;;20.90;99.90;;;;;;5031986;28;19979;-43
2023/06/29 06:15:21;;;;;;;;;;;20.90;99.90;;;;;;5016692;28;19929;-44
2023/06/29 06:17:49;;;;;;;;;;;21.00;99.90;;;;;;5034517;28;19933;-45
2023/06/29 06:20:16;;;;;;;;;;;20.90;99.90;;;;;;5034441;28;19929;-44
2023/06/29 06:22:43;;;;;;;;;;;21.00;99.90;;;;;;5014652;28;20371;-45
2023/06/29 06:25:09;;;;;;;;;;;20.90;99.90;;;;;;5016025;28;19925;-45
2023/06/29 06:27:36;;;;;;;;;;;21.00;99.90;;;;;;5016545;28;19926;-45
2023/06/29 06:30:04;;;;;;;;;;;21.00;99.90;;;;;;5015843;28;19963;-45
2023/06/29 06:32:31;;;;;;;;;;;21.00;99.90;;;;;;5015437;28;19971;-44
2023/06/29 06:34:59;;;;;;;;;;;21.00;99.90;;;;;;5014668;28;19929;-44
2023/06/29 06:37:26;;;;;;;;;;;21.00;99.90;;;;;;5033937;28;19925;-44
2023/06/29 06:39:52;;;;;;;;;;;21.00;99.90;;;;;;5016360;28;19937;-45
2023/06/29 06:42:19;;;;;;;;;;;21.00;99.90;;;;;;5015128;28;20394;-44
2023/06/29 06:44:52;;;;;;;;;;;21.00;99.90;;;;;;5014017;28;20278;-44
2023/06/29 06:47:19;;;;;;;;;;;21.00;99.90;;;;;;5016242;28;20392;-45
2023/06/29 06:49:46;;;;;;;;;;;21.00;99.90;;;;;;5016000;28;19925;-44
2023/06/29 06:52:14;;;;;;;;;;;21.00;99.90;;;;;;5032150;28;19980;-45
2023/06/29 06:54:41;;;;;;;;;;;21.00;99.90;;;;;;5033361;28;20313;-44
2023/06/29 06:57:08;;;;;;;;;;;21.00;99.90;;;;;;5033309;28;19973;-43
2023/06/29 06:59:34;;;;;;;;;;;21.00;99.90;;;;;;5033529;28;19929;-44
2023/06/29 07:02:01;;;;;;;;;;;20.90;99.90;;;;;;5032863;28;19955;-45
2023/06/29 07:04:28;;;;;;;;;;;20.90;99.90;;;;;;5014764;28;19929;-45
2023/06/29 07:06:54;;;;;;;;;;;20.90;99.90;;;;;;5015779;28;20365;-45
2023/06/29 07:09:22;;;;;;;;;;;20.90;99.90;;;;;;5015481;28;19929;-44
2023/06/29 07:11:49;;;;;;;;;;;20.90;99.90;;;;;;5015133;28;20045;-45
2023/06/29 07:14:16;;;;;;;;;;;20.90;99.90;;;;;;5014794;28;19941;-45
2023/06/29 07:16:42;;;;;;;;;;;20.90;99.90;;;;;;5033251;28;20023;-45
2023/06/29 07:19:11;;;;;;;;;;;20.90;99.90;;;;;;5033221;28;19925;-45
2023/06/29 07:21:37;;;;;;;;;;;20.90;99.90;;;;;;5030987;28;20286;-45
2023/06/29 07:24:04;;;;;;;;;;;20.90;99.90;;;;;;5032978;28;19978;-44
2023/06/29 07:26:32;;;;;;;;;;;21.00;99.90;;;;;;5014662;28;19925;-45
2023/06/29 07:28:59;;;;;;;;;;;21.00;99.90;;;;;;5014233;28;19978;-45
2023/06/29 07:31:25;;;;;;;;;;;21.10;99.90;;;;;;5014483;28;20006;-45
2023/06/29 07:33:53;;;;;;;;;;;21.10;99.90;;;;;;5032080;28;19963;-44
2023/06/29 07:36:19;;;;;;;;;;;21.10;99.90;;;;;;5032733;28;19925;-43
2023/06/29 07:38:46;;;;;;;;;;;21.10;99.90;;;;;;5032711;28;19986;-44
2023/06/29 07:41:13;;;;;;;;;;;21.10;99.90;;;;;;5030503;28;19960;-44
2023/06/29 07:43:44;;;;;;;;;;;21.20;99.90;;;;;;5013207;28;20082;-44
2023/06/29 07:46:11;;;;;;;;;;;21.20;99.90;;;;;;4995338;28;20419;-44
2023/06/29 07:48:38;;;;;;;;;;;21.20;99.90;;;;;;5012832;28;19959;-44
2023/06/29 07:51:04;;;;;;;;;;;21.20;99.90;;;;;;5012831;28;20340;-45
2023/06/29 07:53:31;;;;;;;;;;;21.20;99.90;;;;;;5031855;28;19925;-44
2023/06/29 07:55:59;;;;;;;;;;;21.20;99.90;;;;;;5013976;28;19936;-43
2023/06/29 07:58:25;;;;;;;;;;;21.20;99.90;;;;;;5032340;28;19933;-44
2023/06/29 08:00:54;;;;;;;;;;;21.30;99.90;;;;;;5015061;28;20050;-43
2023/06/29 08:03:20;;;;;;;;;;;21.20;99.90;;;;;;5014008;28;19942;-44
2023/06/29 08:05:47;;;;;;;;;;;21.30;99.90;;;;;;5012600;28;19929;-44
2023/06/29 08:08:14;;;;;;;;;;;21.30;99.90;;;;;;5014915;28;19984;-44
2023/06/29 08:10:41;;;;;;;;;;;21.30;99.90;;;;;;5013151;28;19925;-43
2023/06/29 08:13:08;;;;;;;;;;;21.40;99.90;;;;;;5014796;28;19968;-43
2023/06/29 08:15:35;;;;;;;;;;;21.40;99.90;;;;;;5032256;28;19969;-44
2023/06/29 08:18:03;;;;;;;;;;;21.40;99.90;;;;;;5013484;28;19936;-43
2023/06/29 08:20:30;;;;;;;;;;;21.50;99.90;;;;;;5030138;28;20301;-44
2023/06/29 08:22:57;;;;;;;;;;;21.50;99.90;;;;;;5014607;28;19971;-44
2023/06/29 08:25:24;;;;;;;;;;;21.60;99.90;;;;;;5031928;28;20367;-44
2023/06/29 08:27:51;;;;;;;;;;;21.60;99.90;;;;;;5013564;28;19971;-44
2023/06/29 08:30:17;;;;;;;;;;;21.70;99.90;;;;;;5030039;28;19948;-44
2023/06/29 08:32:47;;;;;;;;;;;21.70;99.90;;;;;;5014195;28;20006;-44
2023/06/29 08:35:16;;;;;;;;;;;21.90;99.90;;;;;;5030526;28;19956;-44
2023/06/29 08:37:42;;;;;;;;;;;21.90;99.90;;;;;;5031114;28;20277;-44
2023/06/29 08:40:09;;;;;;;;;;;22.00;99.90;;;;;;5010899;28;19925;-43
2023/06/29 08:42:37;;;;;;;;;;;22.10;99.90;;;;;;5009320;28;19929;-44
2023/06/29 08:45:05;;;;;;;;;;;22.30;99.90;;;;;;5028945;28;19972;-45
2023/06/29 08:47:31;;;;;;;;;;;22.40;99.90;;;;;;5012910;28;20020;-44
2023/06/29 08:49:58;;;;;;;;;;;22.50;99.90;;;;;;5012631;28;19929;-45
2023/06/29 08:52:27;;;;;;;;;;;22.50;99.90;;;;;;5030718;28;20384;-45
2023/06/29 08:54:53;;;;;;;;;;;22.50;99.90;;;;;;5030655;28;19929;-44
2023/06/29 08:57:20;;;;;;;;;;;22.60;99.90;;;;;;5030976;28;19925;-45
2023/06/29 08:59:47;;;;;;;;;;;22.60;99.90;;;;;;5012049;28;19966;-45
2023/06/29 09:02:14;;;;;;;;;;;22.60;99.90;;;;;;5013740;28;19990;-43
2023/06/29 09:04:41;;;;;;;;;;;22.60;99.90;;;;;;5030916;28;19925;-44
2023/06/29 09:07:07;;;;;;;;;;;22.60;99.90;;;;;;5030488;28;19966;-44
2023/06/29 09:09:35;;;;;;;;;;;22.60;99.90;;;;;;5030343;28;19940;-45
2023/06/29 09:12:02;;;;;;;;;;;22.60;99.90;;;;;;5046868;28;19932;-46
2023/06/29 09:14:30;;;;;;;;;;;22.60;99.90;;;;;;5012706;28;20419;-45
2023/06/29 09:16:58;;;;;;;;;;;22.60;99.90;;;;;;5033129;28;20042;-45
2023/06/29 09:19:25;;;;;;;;;;;22.60;99.90;;;;;;5016661;28;19960;-45
2023/06/29 09:22:03;;;;;;;;;;;22.60;99.90;;;;;;5032881;28;19926;-46
2023/06/29 09:24:30;;;;;;;;;;;22.70;99.90;;;;;;5016287;28;19948;-45
2023/06/29 09:26:58;;;;;;;;;;;22.70;99.90;;;;;;5016957;28;19971;-46
2023/06/29 09:29:25;;;;;;;;;;;22.70;99.90;;;;;;5033765;28;20060;-44
2023/06/29 09:31:54;;;;;;;;;;;22.80;99.90;;;;;;5016482;28;19925;-45
2023/06/29 09:34:21;;;;;;;;;;;22.90;99.90;;;;;;5015814;28;20431;-45
2023/06/29 09:36:48;;;;;;;;;;;23.00;99.90;;;;;;5016286;28;19995;-44
2023/06/29 09:39:15;;;;;;;;;;;23.10;99.90;;;;;;5016577;28;20209;-46
2023/06/29 09:41:45;;;;;;;;;;;23.10;99.90;;;;;;5015079;28;20723;-46
2023/06/29 09:44:13;;;;;;;;;;;23.10;99.90;;;;;;5014246;28;20039;-45
2023/06/29 09:46:41;;;;;;;;;;;23.00;99.90;;;;;;5014802;28;19948;-46
2023/06/29 09:49:08;;;;;;;;;;;22.90;99.90;;;;;;5032672;28;20703;-44
2023/06/29 09:51:34;;;;;;;;;;;22.80;99.90;;;;;;5016754;28;20308;-45
2023/06/29 09:54:01;;;;;;;;;;;22.80;99.90;;;;;;5031285;28;19929;-45
2023/06/29 09:56:28;;;;;;;;;;;22.70;99.90;;;;;;5030639;28;19948;-45
2023/06/29 09:58:55;;;;;;;;;;;22.60;99.90;;;;;;5017668;28;19980;-44
2023/06/29 10:01:24;;;;;;;;;;;22.50;99.90;;;;;;5000331;28;19966;-44
2023/06/29 10:03:51;;;;;;;;;;;22.40;99.90;;;;;;5033847;28;20296;-44
2023/06/29 10:06:18;;;;;;;;;;;22.40;99.90;;;;;;5015783;28;19925;-45
2023/06/29 10:08:45;;;;;;;;;;;22.40;99.90;;;;;;5033394;28;19975;-45
2023/06/29 10:11:12;;;;;;;;;;;22.30;99.90;;;;;;5031555;28;19958;-45
2023/06/29 10:13:39;;;;;;;;;;;22.30;99.90;;;;;;5014852;28;20404;-45
2023/06/29 10:16:07;;;;;;;;;;;22.40;99.90;;;;;;5029280;28;19925;-44
2023/06/29 10:18:36;;;;;;;;;;;22.40;99.90;;;;;;5011245;28;20015;-43
2023/06/29 10:21:03;;;;;;;;;;;22.50;99.90;;;;;;5032979;28;19959;-45
2023/06/29 10:23:30;;;;;;;;;;;22.50;99.90;;;;;;5015917;28;19925;-43
2023/06/29 10:25:57;;;;;;;;;;;22.60;99.90;;;;;;5015720;28;20335;-44
2023/06/29 10:28:23;;;;;;;;;;;22.60;99.90;;;;;;5031581;28;19979;-45
2023/06/29 10:30:51;;;;;;;;;;;22.70;99.90;;;;;;5027154;28;20015;-45
2023/06/29 10:33:21;;;;;;;;;;;22.80;99.90;;;;;;5031789;28;20005;-44
2023/06/29 10:35:53;;;;;;;;;;;22.80;99.90;;;;;;5032970;28;19960;-45
2023/06/29 10:38:19;;;;;;;;;;;22.80;99.90;;;;;;5011355;28;20422;-45
2023/06/29 10:40:46;;;;;;;;;;;22.90;99.90;;;;;;5032208;28;19968;-45
2023/06/29 10:43:13;;;;;;;;;;;22.90;99.90;;;;;;5014496;28;20688;-45
2023/06/29 10:45:39;;;;;;;;;;;22.90;99.90;;;;;;5014728;28;19932;-45
2023/06/29 10:48:07;;;;;;;;;;;23.00;99.90;;;;;;5006326;28;19980;-44
2023/06/29 10:50:38;;;;;;;;;;;23.10;99.90;;;;;;5026326;28;19925;-44
2023/06/29 10:53:06;;;;;;;;;;;23.10;99.90;;;;;;5014577;28;19929;-45
2023/06/29 10:55:43;;;;;;;;;;;23.20;99.90;;;;;;5031862;28;19925;-45
2023/06/29 10:58:13;;;;;;;;;;;23.30;99.90;;;;;;5030790;28;19936;-45
2023/06/29 11:00:40;;;;;;;;;;;23.30;99.90;;;;;;5032731;28;20288;-45
2023/06/29 11:03:08;;;;;;;;;;;23.40;99.90;;;;;;5014197;28;19975;-45
2023/06/29 11:05:35;;;;;;;;;;;23.50;99.90;;;;;;5027599;28;19943;-45
2023/06/29 11:08:02;;;;;;;;;;;23.50;99.90;;;;;;5014982;28;19932;-45
2023/06/29 11:10:30;;;;;;;;;;;23.50;99.90;;;;;;5033205;28;20026;-46
2023/06/29 11:12:56;;;;;;;;;;;23.50;99.90;;;;;;5048002;28;20385;-45
2023/06/29 11:15:23;;;;;;;;;;;23.50;99.90;;;;;;5032274;28;19929;-44
2023/06/29 11:17:50;;;;;;;;;;;23.60;99.90;;;;;;5013881;28;19933;-45
2023/06/29 11:20:17;;;;;;;;;;;23.70;99.90;;;;;;5031942;28;19986;-45
2023/06/29 11:22:44;;;;;;;;;;;23.90;99.90;;;;;;5013260;28;20365;-44
2023/06/29 11:25:11;;;;;;;;;;;24.00;99.90;;;;;;5013902;28;19925;-45
2023/06/29 11:27:39;;;;;;;;;;;24.20;99.90;;;;;;5031747;28;19925;-45
2023/06/29 11:30:08;;;;;;;;;;;24.30;99.90;;;;;;5031801;28;19925;-44
2023/06/29 11:32:34;;;;;;;;;;;24.40;99.90;;;;;;5012113;28;20305;-44
2023/06/29 11:35:01;;;;;;;;;;;24.50;99.90;;;;;;5027654;28;19933;-45
2023/06/29 11:37:28;;;;;;;;;;;24.50;99.90;;;;;;5032839;28;19964;-44
2023/06/29 11:39:55;;;;;;;;;;;24.60;99.90;;;;;;5012853;28;19936;-44
2023/06/29 11:42:22;;;;;;;;;;;24.70;99.90;;;;;;5012042;28;20425;-44
2023/06/29 11:44:51;;;;;;;;;;;24.70;99.90;;;;;;4995369;28;20061;-44
2023/06/29 11:47:19;;;;;;;;;;;24.80;99.90;;;;;;5013614;28;21185;-45
2023/06/29 11:49:49;;;;;;;;;;;24.90;99.90;;;;;;5029758;28;20008;-44
2023/06/29 11:52:16;;;;;;;;;;;25.10;99.90;;;;;;5011782;28;19943;-45
2023/06/29 11:54:43;;;;;;;;;;;25.40;99.90;;;;;;5026643;28;20067;-44
2023/06/29 11:57:10;;;;;;;;;;;25.60;99.90;;;;;;5026143;28;19940;-43
2023/06/29 11:59:38;;;;;;;;;;;25.90;99.90;;;;;;5027268;28;19972;-44
2023/06/29 12:02:06;;;;;;;;;;;26.10;99.90;;;;;;5030505;28;20347;-45
2023/06/29 12:04:33;;;;;;;;;;;26.10;99.90;;;;;;5025250;28;19976;-44
2023/06/29 12:06:59;;;;;;;;;;;26.10;99.90;;;;;;5046533;28;19983;-44
2023/06/29 12:09:30;;;;;;;;;;;26.10;99.90;;;;;;5007840;28;19968;-45
2023/06/29 12:11:57;;;;;;;;;;;26.10;99.90;;;;;;5010006;28;19933;-45
2023/06/29 12:14:23;;;;;;;;;;;26.20;99.90;;;;;;5030735;28;19983;-45
2023/06/29 12:16:51;;;;;;;;;;;26.30;99.90;;;;;;5010126;28;19925;-42
2023/06/29 12:19:19;;;;;;;;;;;26.40;99.90;;;;;;5009284;28;19925;-44
2023/06/29 12:21:45;;;;;;;;;;;26.40;99.90;;;;;;5042011;28;19937;-44
2023/06/29 12:24:16;;;;;;;;;;;26.50;99.90;;;;;;5027962;28;19932;-43
2023/06/29 12:26:42;;;;;;;;;;;26.50;99.90;;;;;;5027106;28;19925;-45
2023/06/29 12:29:09;;;;;;;;;;;26.70;99.90;;;;;;5012240;28;19932;-44
2023/06/29 12:31:36;;;;;;;;;;;26.90;99.90;;;;;;5012849;28;19925;-45
2023/06/29 12:34:03;;;;;;;;;;;26.90;99.90;;;;;;5029434;28;19979;-43
2023/06/29 12:36:31;;;;;;;;;;;26.90;99.90;;;;;;5015065;28;19956;-44
2023/06/29 12:38:58;;;;;;;;;;;26.80;99.90;;;;;;5034166;28;19932;-45
2023/06/29 12:41:24;;;;;;;;;;;26.70;99.50;;;;;;5023761;28;20401;-44
2023/06/29 12:43:51;;;;;;;;;;;26.60;99.80;;;;;;5029828;28;20271;-45
2023/06/29 12:46:19;;;;;;;;;;;26.50;99.70;;;;;;5009737;28;19925;-44
2023/06/29 12:48:46;;;;;;;;;;;26.30;99.90;;;;;;5041859;28;19960;-44
2023/06/29 12:51:13;;;;;;;;;;;26.20;99.90;;;;;;5011874;28;19952;-45
2023/06/29 12:53:42;;;;;;;;;;;26.30;99.90;;;;;;5032976;28;20009;-46
2023/06/29 12:56:09;;;;;;;;;;;26.30;99.90;;;;;;5015122;28;20388;-44
2023/06/29 12:58:42;;;;;;;;;;;26.50;99.90;;;;;;5036930;28;19985;-46
2023/06/29 13:01:09;;;;;;;;;;;26.60;99.90;;;;;;5048325;28;20380;-44
2023/06/29 13:03:35;;;;;;;;;;;26.60;99.80;;;;;;5016706;28;20403;-44
2023/06/29 13:06:02;;;;;;;;;;;26.70;99.90;;;;;;5013701;28;20385;-44
2023/06/29 13:08:29;;;;;;;;;;;26.70;99.20;;;;;;5026466;28;19936;-44
2023/06/29 13:10:58;;;;;;;;;;;26.60;98.90;;;;;;5033188;28;19940;-43
2023/06/29 13:13:24;;;;;;;;;;;26.60;98.90;;;;;;5015862;28;19963;-44
2023/06/29 13:15:51;;;;;;;;;;;26.80;99.10;;;;;;5029622;28;20034;-45
2023/06/29 13:18:18;;;;;;;;;;;26.90;99.50;;;;;;5005695;28;20035;-44
2023/06/29 13:20:44;;;;;;;;;;;27.10;99.30;;;;;;5030163;28;19964;-44
2023/06/29 13:23:11;;;;;;;;;;;27.20;99.40;;;;;;5031755;28;19926;-45
2023/06/29 13:25:38;;;;;;;;;;;27.30;98.90;;;;;;5033856;28;19972;-45
2023/06/29 13:28:06;;;;;;;;;;;27.30;97.80;;;;;;5031688;28;19933;-45
2023/06/29 13:30:33;;;;;;;;;;;27.30;98.20;;;;;;5029146;28;20354;-44
2023/06/29 13:32:59;;;;;;;;;;;27.30;97.40;;;;;;5015772;28;19925;-45
2023/06/29 13:35:26;;;;;;;;;;;27.30;97.30;;;;;;5030346;28;20465;-44
2023/06/29 13:37:53;;;;;;;;;;;27.30;97.90;;;;;;5032042;28;19925;-45
2023/06/29 13:40:19;;;;;;;;;;;27.30;97.10;;;;;;5013714;28;19925;-44
2023/06/29 13:42:46;;;;;;;;;;;27.10;96.40;;;;;;5033310;28;19932;-44
2023/06/29 13:45:14;;;;;;;;;;;27.10;97.20;;;;;;5015024;28;19960;-45
2023/06/29 13:47:41;;;;;;;;;;;26.90;96.70;;;;;;5029531;28;19933;-45
2023/06/29 13:50:08;;;;;;;;;;;26.80;96.80;;;;;;5032161;28;20435;-45
2023/06/29 13:52:35;;;;;;;;;;;26.60;96.50;;;;;;5029763;28;20293;-44
2023/06/29 13:55:05;;;;;;;;;;;26.50;97.10;;;;;;5031084;28;19958;-44
2023/06/29 13:57:35;;;;;;;;;;;26.30;97.90;;;;;;5041918;28;19940;-44
2023/06/29 14:00:02;;;;;;;;;;;26.20;98.00;;;;;;5021909;28;20393;-43
2023/06/29 14:02:30;;;;;;;;;;;25.90;98.80;;;;;;5031733;28;19961;-41
2023/06/29 14:04:57;;;;;;;;;;;25.60;99.50;;;;;;5031763;28;20029;-44
2023/06/29 14:07:23;;;;;;;;;;;25.20;99.90;;;;;;5013846;28;19933;-43
2023/06/29 14:09:50;;;;;;;;;;;24.90;99.90;;;;;;5032113;28;19925;-44
2023/06/29 14:12:17;;;;;;;;;;;24.60;99.90;;;;;;5015472;28;19925;-43
2023/06/29 14:14:44;;;;;;;;;;;24.40;99.90;;;;;;5033358;28;19925;-44